sensor_id;sensor_type;location;lat;lon;timestamp;P1;durP1;ratioP1;P2;durP2;ratioP2
53833;SDS011;39735;51.432;5.482;2022-11-22T00:00:25;12.60;;;5.45;;
53833;SDS011;39735;51.432;5.482;2022-11-22T00:02:52;15.68;;;5.13;;
53833;SDS011;39735;51.432;5.482;2022-11-22T00:05:17;22.05;;;4.85;;
53833;SDS011;39735;51.432;5.482;2022-11-22T00:07:42;19.95;;;5.60;;
53833;SDS011;39735;51.432;5.482;2022-11-22T00:10:08;14.70;;;4.63;;
53833;SDS011;39735;51.432;5.482;2022-11-22T00:12:35;8.77;;;4.70;;
53833;SDS011;39735;51.432;5.482;2022-11-22T00:15:01;9.60;;;4.65;;
53833;SDS011;39735;51.432;5.482;2022-11-22T00:17:26;12.10;;;3.90;;
53833;SDS011;39735;51.432;5.482;2022-11-22T00:19:51;15.63;;;6.10;;
53833;SDS011;39735;51.432;5.482;2022-11-22T00:22:17;20.25;;;4.07;;
53833;SDS011;39735;51.432;5.482;2022-11-22T00:24:42;11.25;;;4.03;;
53833;SDS011;39735;51.432;5.482;2022-11-22T00:27:10;10.07;;;3.72;;
53833;SDS011;39735;51.432;5.482;2022-11-22T00:29:35;9.88;;;3.53;;
53833;SDS011;39735;51.432;5.482;2022-11-22T00:32:01;12.27;;;4.20;;
53833;SDS011;39735;51.432;5.482;2022-11-22T00:34:26;5.15;;;3.42;;
53833;SDS011;39735;51.432;5.482;2022-11-22T00:36:51;7.13;;;5.15;;
53833;SDS011;39735;51.432;5.482;2022-11-22T00:39:17;16.58;;;5.90;;
53833;SDS011;39735;51.432;5.482;2022-11-22T00:41:42;22.52;;;6.18;;
53833;SDS011;39735;51.432;5.482;2022-11-22T00:44:07;19.83;;;3.60;;
53833;SDS011;39735;51.432;5.482;2022-11-22T00:46:33;8.50;;;3.78;;
53833;SDS011;39735;51.432;5.482;2022-11-22T00:48:58;18.75;;;4.28;;
53833;SDS011;39735;51.432;5.482;2022-11-22T00:51:23;15.27;;;4.13;;
53833;SDS011;39735;51.432;5.482;2022-11-22T00:53:49;10.35;;;3.15;;
53833;SDS011;39735;51.432;5.482;2022-11-22T00:56:14;5.72;;;2.80;;
53833;SDS011;39735;51.432;5.482;2022-11-22T00:58:39;16.40;;;2.65;;
53833;SDS011;39735;51.432;5.482;2022-11-22T01:01:05;18.75;;;4.18;;
53833;SDS011;39735;51.432;5.482;2022-11-22T01:03:30;7.85;;;3.20;;
53833;SDS011;39735;51.432;5.482;2022-11-22T01:05:55;15.27;;;5.50;;
53833;SDS011;39735;51.432;5.482;2022-11-22T01:08:21;26.55;;;5.85;;
53833;SDS011;39735;51.432;5.482;2022-11-22T01:10:46;11.70;;;2.58;;
53833;SDS011;39735;51.432;5.482;2022-11-22T01:13:12;10.95;;;3.95;;
53833;SDS011;39735;51.432;5.482;2022-11-22T01:15:37;19.48;;;3.95;;
53833;SDS011;39735;51.432;5.482;2022-11-22T01:18:02;10.90;;;4.18;;
53833;SDS011;39735;51.432;5.482;2022-11-22T01:20:28;16.20;;;3.58;;
53833;SDS011;39735;51.432;5.482;2022-11-22T01:22:55;11.90;;;3.15;;
53833;SDS011;39735;51.432;5.482;2022-11-22T01:25:21;19.20;;;4.10;;
53833;SDS011;39735;51.432;5.482;2022-11-22T01:27:46;15.50;;;3.65;;
53833;SDS011;39735;51.432;5.482;2022-11-22T01:30:12;28.02;;;5.07;;
53833;SDS011;39735;51.432;5.482;2022-11-22T01:32:37;15.68;;;6.68;;
53833;SDS011;39735;51.432;5.482;2022-11-22T01:35:02;19.85;;;4.88;;
53833;SDS011;39735;51.432;5.482;2022-11-22T01:37:28;10.38;;;2.92;;
53833;SDS011;39735;51.432;5.482;2022-11-22T01:39:53;17.88;;;4.55;;
53833;SDS011;39735;51.432;5.482;2022-11-22T01:42:19;20.60;;;4.15;;
53833;SDS011;39735;51.432;5.482;2022-11-22T01:44:45;30.85;;;3.33;;
53833;SDS011;39735;51.432;5.482;2022-11-22T01:47:12;17.52;;;3.33;;
53833;SDS011;39735;51.432;5.482;2022-11-22T01:49:41;21.85;;;5.78;;
53833;SDS011;39735;51.432;5.482;2022-11-22T01:52:29;26.10;;;4.18;;
53833;SDS011;39735;51.432;5.482;2022-11-22T01:54:57;39.80;;;4.68;;
53833;SDS011;39735;51.432;5.482;2022-11-22T01:57:27;21.85;;;4.45;;
53833;SDS011;39735;51.432;5.482;2022-11-22T01:59:56;18.00;;;5.47;;
53833;SDS011;39735;51.432;5.482;2022-11-22T02:02:24;12.55;;;3.75;;
53833;SDS011;39735;51.432;5.482;2022-11-22T02:04:50;29.35;;;3.25;;
53833;SDS011;39735;51.432;5.482;2022-11-22T02:09:47;11.90;;;3.20;;
53833;SDS011;39735;51.432;5.482;2022-11-22T02:12:15;32.55;;;4.45;;
53833;SDS011;39735;51.432;5.482;2022-11-22T02:14:41;36.42;;;4.53;;
53833;SDS011;39735;51.432;5.482;2022-11-22T02:17:07;24.90;;;5.93;;
53833;SDS011;39735;51.432;5.482;2022-11-22T02:19:37;24.73;;;4.05;;
53833;SDS011;39735;51.432;5.482;2022-11-22T02:22:07;40.70;;;3.78;;
53833;SDS011;39735;51.432;5.482;2022-11-22T02:24:49;24.10;;;5.32;;
53833;SDS011;39735;51.432;5.482;2022-11-22T02:27:18;18.77;;;4.18;;
53833;SDS011;39735;51.432;5.482;2022-11-22T02:29:44;22.27;;;4.30;;
53833;SDS011;39735;51.432;5.482;2022-11-22T02:32:09;31.33;;;4.72;;
53833;SDS011;39735;51.432;5.482;2022-11-22T02:34:44;29.05;;;4.38;;
53833;SDS011;39735;51.432;5.482;2022-11-22T02:37:11;27.23;;;3.63;;
53833;SDS011;39735;51.432;5.482;2022-11-22T02:39:40;39.22;;;5.00;;
53833;SDS011;39735;51.432;5.482;2022-11-22T02:42:06;42.63;;;4.15;;
53833;SDS011;39735;51.432;5.482;2022-11-22T02:44:32;22.45;;;3.70;;
53833;SDS011;39735;51.432;5.482;2022-11-22T02:46:57;14.25;;;4.07;;
53833;SDS011;39735;51.432;5.482;2022-11-22T02:49:23;28.52;;;6.57;;
53833;SDS011;39735;51.432;5.482;2022-11-22T02:51:49;32.83;;;5.07;;
53833;SDS011;39735;51.432;5.482;2022-11-22T02:54:16;38.28;;;4.70;;
53833;SDS011;39735;51.432;5.482;2022-11-22T02:56:41;15.23;;;2.88;;
53833;SDS011;39735;51.432;5.482;2022-11-22T02:59:07;25.42;;;4.00;;
53833;SDS011;39735;51.432;5.482;2022-11-22T03:01:32;35.13;;;3.70;;
53833;SDS011;39735;51.432;5.482;2022-11-22T03:03:57;34.35;;;4.68;;
53833;SDS011;39735;51.432;5.482;2022-11-22T03:06:23;31.70;;;4.00;;
53833;SDS011;39735;51.432;5.482;2022-11-22T03:08:48;38.95;;;6.25;;
53833;SDS011;39735;51.432;5.482;2022-11-22T03:11:14;21.90;;;3.97;;
53833;SDS011;39735;51.432;5.482;2022-11-22T03:13:39;31.52;;;6.00;;
53833;SDS011;39735;51.432;5.482;2022-11-22T03:16:05;23.05;;;3.65;;
53833;SDS011;39735;51.432;5.482;2022-11-22T03:18:33;30.38;;;5.30;;
53833;SDS011;39735;51.432;5.482;2022-11-22T03:21:03;25.92;;;4.05;;
53833;SDS011;39735;51.432;5.482;2022-11-22T03:23:30;37.30;;;4.28;;
53833;SDS011;39735;51.432;5.482;2022-11-22T03:25:56;23.02;;;4.43;;
53833;SDS011;39735;51.432;5.482;2022-11-22T03:28:21;30.00;;;6.00;;
53833;SDS011;39735;51.432;5.482;2022-11-22T03:30:46;24.30;;;5.13;;
53833;SDS011;39735;51.432;5.482;2022-11-22T03:33:12;22.80;;;3.63;;
53833;SDS011;39735;51.432;5.482;2022-11-22T03:35:37;39.60;;;8.00;;
53833;SDS011;39735;51.432;5.482;2022-11-22T03:38:03;28.30;;;6.38;;
53833;SDS011;39735;51.432;5.482;2022-11-22T03:40:28;39.50;;;4.82;;
53833;SDS011;39735;51.432;5.482;2022-11-22T03:42:54;48.88;;;6.10;;
53833;SDS011;39735;51.432;5.482;2022-11-22T03:45:19;20.05;;;3.97;;
53833;SDS011;39735;51.432;5.482;2022-11-22T03:47:44;27.90;;;3.63;;
53833;SDS011;39735;51.432;5.482;2022-11-22T03:50:09;36.13;;;5.75;;
53833;SDS011;39735;51.432;5.482;2022-11-22T03:52:35;33.55;;;3.33;;
53833;SDS011;39735;51.432;5.482;2022-11-22T03:55:00;18.88;;;3.47;;
53833;SDS011;39735;51.432;5.482;2022-11-22T03:57:26;20.85;;;4.00;;
53833;SDS011;39735;51.432;5.482;2022-11-22T03:59:51;23.77;;;3.35;;
53833;SDS011;39735;51.432;5.482;2022-11-22T04:02:17;26.58;;;4.55;;
53833;SDS011;39735;51.432;5.482;2022-11-22T04:04:42;20.00;;;4.05;;
53833;SDS011;39735;51.432;5.482;2022-11-22T04:07:07;32.97;;;3.85;;
53833;SDS011;39735;51.432;5.482;2022-11-22T04:09:33;32.67;;;4.47;;
53833;SDS011;39735;51.432;5.482;2022-11-22T04:11:58;35.53;;;5.38;;
53833;SDS011;39735;51.432;5.482;2022-11-22T04:14:23;43.33;;;4.43;;
53833;SDS011;39735;51.432;5.482;2022-11-22T04:17:10;22.30;;;3.60;;
53833;SDS011;39735;51.432;5.482;2022-11-22T04:19:36;23.08;;;4.05;;
53833;SDS011;39735;51.432;5.482;2022-11-22T04:22:02;28.05;;;4.05;;
53833;SDS011;39735;51.432;5.482;2022-11-22T04:24:27;12.88;;;3.05;;
53833;SDS011;39735;51.432;5.482;2022-11-22T04:27:11;28.33;;;4.23;;
53833;SDS011;39735;51.432;5.482;2022-11-22T04:29:36;41.67;;;3.92;;
53833;SDS011;39735;51.432;5.482;2022-11-22T04:32:01;44.40;;;6.15;;
53833;SDS011;39735;51.432;5.482;2022-11-22T04:34:46;52.65;;;8.15;;
53833;SDS011;39735;51.432;5.482;2022-11-22T04:37:11;24.40;;;4.13;;
53833;SDS011;39735;51.432;5.482;2022-11-22T04:39:36;46.17;;;5.18;;
53833;SDS011;39735;51.432;5.482;2022-11-22T04:42:02;42.97;;;4.05;;
53833;SDS011;39735;51.432;5.482;2022-11-22T04:44:46;42.55;;;6.03;;
53833;SDS011;39735;51.432;5.482;2022-11-22T04:47:15;51.08;;;7.35;;
53833;SDS011;39735;51.432;5.482;2022-11-22T04:50:04;21.27;;;4.78;;
53833;SDS011;39735;51.432;5.482;2022-11-22T04:52:54;36.42;;;5.38;;
53833;SDS011;39735;51.432;5.482;2022-11-22T04:55:21;26.13;;;3.60;;
53833;SDS011;39735;51.432;5.482;2022-11-22T04:57:47;24.83;;;6.40;;
53833;SDS011;39735;51.432;5.482;2022-11-22T05:00:12;26.35;;;3.20;;
53833;SDS011;39735;51.432;5.482;2022-11-22T05:02:37;20.23;;;3.35;;
53833;SDS011;39735;51.432;5.482;2022-11-22T05:05:03;20.25;;;4.60;;
53833;SDS011;39735;51.432;5.482;2022-11-22T05:07:29;22.67;;;3.92;;
53833;SDS011;39735;51.432;5.482;2022-11-22T05:09:54;32.53;;;4.88;;
53833;SDS011;39735;51.432;5.482;2022-11-22T05:12:19;21.27;;;2.70;;
53833;SDS011;39735;51.432;5.482;2022-11-22T05:14:45;19.45;;;3.67;;
53833;SDS011;39735;51.432;5.482;2022-11-22T05:17:10;36.70;;;4.38;;
53833;SDS011;39735;51.432;5.482;2022-11-22T05:19:35;26.35;;;3.15;;
53833;SDS011;39735;51.432;5.482;2022-11-22T05:22:00;14.25;;;3.30;;
53833;SDS011;39735;51.432;5.482;2022-11-22T05:24:26;29.98;;;3.38;;
53833;SDS011;39735;51.432;5.482;2022-11-22T05:26:51;19.77;;;3.47;;
53833;SDS011;39735;51.432;5.482;2022-11-22T05:29:17;21.95;;;3.45;;
53833;SDS011;39735;51.432;5.482;2022-11-22T05:31:42;48.08;;;7.10;;
53833;SDS011;39735;51.432;5.482;2022-11-22T05:34:07;23.90;;;4.00;;
53833;SDS011;39735;51.432;5.482;2022-11-22T05:36:33;35.92;;;4.68;;
53833;SDS011;39735;51.432;5.482;2022-11-22T05:38:59;17.38;;;3.67;;
53833;SDS011;39735;51.432;5.482;2022-11-22T05:41:25;21.38;;;3.20;;
53833;SDS011;39735;51.432;5.482;2022-11-22T05:43:52;21.83;;;3.13;;
53833;SDS011;39735;51.432;5.482;2022-11-22T05:46:20;19.10;;;3.42;;
53833;SDS011;39735;51.432;5.482;2022-11-22T05:48:46;24.95;;;2.65;;
53833;SDS011;39735;51.432;5.482;2022-11-22T05:51:13;19.00;;;4.65;;
53833;SDS011;39735;51.432;5.482;2022-11-22T05:53:40;14.10;;;2.53;;
53833;SDS011;39735;51.432;5.482;2022-11-22T05:56:09;23.33;;;3.15;;
53833;SDS011;39735;51.432;5.482;2022-11-22T05:58:36;25.33;;;2.55;;
53833;SDS011;39735;51.432;5.482;2022-11-22T06:01:12;17.88;;;2.78;;
53833;SDS011;39735;51.432;5.482;2022-11-22T06:03:39;26.58;;;3.53;;
53833;SDS011;39735;51.432;5.482;2022-11-22T06:06:04;39.20;;;3.45;;
53833;SDS011;39735;51.432;5.482;2022-11-22T06:08:31;23.38;;;2.88;;
53833;SDS011;39735;51.432;5.482;2022-11-22T06:11:03;24.48;;;2.88;;
53833;SDS011;39735;51.432;5.482;2022-11-22T06:13:31;9.18;;;2.10;;
53833;SDS011;39735;51.432;5.482;2022-11-22T06:16:01;13.70;;;3.05;;
53833;SDS011;39735;51.432;5.482;2022-11-22T06:18:27;21.50;;;3.30;;
53833;SDS011;39735;51.432;5.482;2022-11-22T06:20:57;22.45;;;4.38;;
53833;SDS011;39735;51.432;5.482;2022-11-22T06:23:27;21.38;;;2.63;;
53833;SDS011;39735;51.432;5.482;2022-11-22T06:25:59;16.33;;;2.92;;
53833;SDS011;39735;51.432;5.482;2022-11-22T06:28:29;13.07;;;3.22;;
53833;SDS011;39735;51.432;5.482;2022-11-22T06:31:01;27.13;;;2.85;;
53833;SDS011;39735;51.432;5.482;2022-11-22T06:33:30;24.67;;;3.60;;
53833;SDS011;39735;51.432;5.482;2022-11-22T06:36:02;18.17;;;3.30;;
53833;SDS011;39735;51.432;5.482;2022-11-22T06:38:28;26.08;;;5.15;;
53833;SDS011;39735;51.432;5.482;2022-11-22T06:40:58;15.70;;;4.18;;
53833;SDS011;39735;51.432;5.482;2022-11-22T06:43:27;14.63;;;2.33;;
53833;SDS011;39735;51.432;5.482;2022-11-22T06:45:54;21.83;;;4.80;;
53833;SDS011;39735;51.432;5.482;2022-11-22T06:48:20;27.10;;;4.07;;
53833;SDS011;39735;51.432;5.482;2022-11-22T06:50:46;10.57;;;3.08;;
53833;SDS011;39735;51.432;5.482;2022-11-22T06:53:11;38.42;;;8.32;;
53833;SDS011;39735;51.432;5.482;2022-11-22T06:55:36;18.38;;;4.15;;
53833;SDS011;39735;51.432;5.482;2022-11-22T06:58:02;19.50;;;4.05;;
53833;SDS011;39735;51.432;5.482;2022-11-22T07:00:27;23.08;;;3.90;;
53833;SDS011;39735;51.432;5.482;2022-11-22T07:02:52;32.00;;;5.32;;
53833;SDS011;39735;51.432;5.482;2022-11-22T07:05:18;11.70;;;3.00;;
53833;SDS011;39735;51.432;5.482;2022-11-22T07:07:43;31.45;;;5.75;;
53833;SDS011;39735;51.432;5.482;2022-11-22T07:10:08;20.95;;;3.97;;
53833;SDS011;39735;51.432;5.482;2022-11-22T07:12:34;33.30;;;3.08;;
53833;SDS011;39735;51.432;5.482;2022-11-22T07:14:59;26.08;;;3.65;;
53833;SDS011;39735;51.432;5.482;2022-11-22T07:17:24;15.95;;;3.05;;
53833;SDS011;39735;51.432;5.482;2022-11-22T07:19:50;23.60;;;3.17;;
53833;SDS011;39735;51.432;5.482;2022-11-22T07:22:15;14.38;;;3.63;;
53833;SDS011;39735;51.432;5.482;2022-11-22T07:24:40;30.38;;;2.17;;
53833;SDS011;39735;51.432;5.482;2022-11-22T07:27:06;22.48;;;3.65;;
53833;SDS011;39735;51.432;5.482;2022-11-22T07:29:31;20.88;;;3.55;;
53833;SDS011;39735;51.432;5.482;2022-11-22T07:31:56;17.45;;;3.47;;
53833;SDS011;39735;51.432;5.482;2022-11-22T07:34:22;28.73;;;2.78;;
53833;SDS011;39735;51.432;5.482;2022-11-22T07:36:47;28.20;;;3.88;;
53833;SDS011;39735;51.432;5.482;2022-11-22T07:39:12;16.85;;;2.97;;
53833;SDS011;39735;51.432;5.482;2022-11-22T07:41:38;13.15;;;4.18;;
53833;SDS011;39735;51.432;5.482;2022-11-22T07:44:03;25.05;;;3.30;;
53833;SDS011;39735;51.432;5.482;2022-11-22T07:46:29;39.78;;;4.15;;
53833;SDS011;39735;51.432;5.482;2022-11-22T07:48:55;15.40;;;3.58;;
53833;SDS011;39735;51.432;5.482;2022-11-22T07:51:21;10.73;;;2.85;;
53833;SDS011;39735;51.432;5.482;2022-11-22T07:53:47;15.75;;;2.55;;
53833;SDS011;39735;51.432;5.482;2022-11-22T07:56:12;23.55;;;3.78;;
53833;SDS011;39735;51.432;5.482;2022-11-22T07:58:38;31.35;;;3.90;;
53833;SDS011;39735;51.432;5.482;2022-11-22T08:01:04;11.50;;;3.08;;
53833;SDS011;39735;51.432;5.482;2022-11-22T08:03:31;23.55;;;3.40;;
53833;SDS011;39735;51.432;5.482;2022-11-22T08:05:59;31.10;;;4.65;;
53833;SDS011;39735;51.432;5.482;2022-11-22T08:08:25;18.92;;;3.05;;
53833;SDS011;39735;51.432;5.482;2022-11-22T08:10:52;19.35;;;3.05;;
53833;SDS011;39735;51.432;5.482;2022-11-22T08:13:17;10.35;;;2.75;;
53833;SDS011;39735;51.432;5.482;2022-11-22T08:15:42;21.45;;;3.63;;
53833;SDS011;39735;51.432;5.482;2022-11-22T08:18:09;23.13;;;3.30;;
53833;SDS011;39735;51.432;5.482;2022-11-22T08:20:34;18.83;;;4.18;;
53833;SDS011;39735;51.432;5.482;2022-11-22T08:23:00;29.55;;;5.00;;
53833;SDS011;39735;51.432;5.482;2022-11-22T08:25:25;14.07;;;2.20;;
53833;SDS011;39735;51.432;5.482;2022-11-22T08:27:50;18.17;;;3.63;;
53833;SDS011;39735;51.432;5.482;2022-11-22T08:30:16;34.70;;;4.18;;
53833;SDS011;39735;51.432;5.482;2022-11-22T08:32:41;12.82;;;2.88;;
53833;SDS011;39735;51.432;5.482;2022-11-22T08:35:07;18.13;;;2.47;;
53833;SDS011;39735;51.432;5.482;2022-11-22T08:37:32;19.65;;;3.13;;
53833;SDS011;39735;51.432;5.482;2022-11-22T08:39:58;24.30;;;4.53;;
53833;SDS011;39735;51.432;5.482;2022-11-22T08:42:23;13.48;;;3.20;;
53833;SDS011;39735;51.432;5.482;2022-11-22T08:44:49;25.17;;;3.50;;
53833;SDS011;39735;51.432;5.482;2022-11-22T08:47:14;22.08;;;4.13;;
53833;SDS011;39735;51.432;5.482;2022-11-22T08:49:39;23.45;;;3.40;;
53833;SDS011;39735;51.432;5.482;2022-11-22T08:52:05;11.32;;;2.17;;
53833;SDS011;39735;51.432;5.482;2022-11-22T08:54:30;14.98;;;2.92;;
53833;SDS011;39735;51.432;5.482;2022-11-22T08:56:55;23.75;;;3.85;;
53833;SDS011;39735;51.432;5.482;2022-11-22T08:59:21;16.52;;;3.20;;
53833;SDS011;39735;51.432;5.482;2022-11-22T09:01:46;22.67;;;3.35;;
53833;SDS011;39735;51.432;5.482;2022-11-22T09:04:11;14.20;;;3.20;;
53833;SDS011;39735;51.432;5.482;2022-11-22T09:06:37;13.60;;;2.72;;
53833;SDS011;39735;51.432;5.482;2022-11-22T09:09:03;14.57;;;2.28;;
53833;SDS011;39735;51.432;5.482;2022-11-22T09:11:28;28.92;;;3.50;;
53833;SDS011;39735;51.432;5.482;2022-11-22T09:13:54;19.73;;;3.50;;
53833;SDS011;39735;51.432;5.482;2022-11-22T09:16:19;19.30;;;3.10;;
53833;SDS011;39735;51.432;5.482;2022-11-22T09:18:45;13.43;;;5.43;;
53833;SDS011;39735;51.432;5.482;2022-11-22T09:21:13;17.77;;;3.95;;
53833;SDS011;39735;51.432;5.482;2022-11-22T09:23:44;10.38;;;2.67;;
53833;SDS011;39735;51.432;5.482;2022-11-22T09:26:12;13.77;;;4.35;;
53833;SDS011;39735;51.432;5.482;2022-11-22T09:28:42;10.10;;;2.38;;
53833;SDS011;39735;51.432;5.482;2022-11-22T09:31:09;15.88;;;3.63;;
53833;SDS011;39735;51.432;5.482;2022-11-22T09:33:36;12.80;;;3.17;;
53833;SDS011;39735;51.432;5.482;2022-11-22T09:36:04;29.27;;;3.97;;
53833;SDS011;39735;51.432;5.482;2022-11-22T09:38:30;14.68;;;3.42;;
53833;SDS011;39735;51.432;5.482;2022-11-22T09:40:56;9.10;;;2.70;;
53833;SDS011;39735;51.432;5.482;2022-11-22T09:43:28;12.88;;;2.30;;
53833;SDS011;39735;51.432;5.482;2022-11-22T09:46:01;13.52;;;3.53;;
53833;SDS011;39735;51.432;5.482;2022-11-22T09:51:35;19.35;;;2.70;;
53833;SDS011;39735;51.432;5.482;2022-11-22T09:54:12;18.65;;;1.90;;
53833;SDS011;39735;51.432;5.482;2022-11-22T09:56:41;27.83;;;3.10;;
53833;SDS011;39735;51.432;5.482;2022-11-22T09:59:11;9.95;;;2.70;;
53833;SDS011;39735;51.432;5.482;2022-11-22T10:01:51;15.35;;;2.25;;
53833;SDS011;39735;51.432;5.482;2022-11-22T10:04:23;9.73;;;2.08;;
53833;SDS011;39735;51.432;5.482;2022-11-22T10:06:53;11.85;;;4.55;;
53833;SDS011;39735;51.432;5.482;2022-11-22T10:12:10;14.75;;;2.97;;
53833;SDS011;39735;51.432;5.482;2022-11-22T10:20:13;7.85;;;2.10;;
53833;SDS011;39735;51.432;5.482;2022-11-22T10:22:40;13.40;;;2.30;;
53833;SDS011;39735;51.432;5.482;2022-11-22T10:25:13;8.35;;;2.70;;
53833;SDS011;39735;51.432;5.482;2022-11-22T10:27:40;13.93;;;2.15;;
53833;SDS011;39735;51.432;5.482;2022-11-22T10:30:12;21.70;;;3.13;;
53833;SDS011;39735;51.432;5.482;2022-11-22T10:35:22;8.63;;;1.88;;
53833;SDS011;39735;51.432;5.482;2022-11-22T10:38:06;16.67;;;2.25;;
53833;SDS011;39735;51.432;5.482;2022-11-22T10:51:48;3.80;;;1.10;;
53833;SDS011;39735;51.432;5.482;2022-11-22T10:54:22;5.15;;;1.00;;
53833;SDS011;39735;51.432;5.482;2022-11-22T10:56:52;7.80;;;1.50;;
53833;SDS011;39735;51.432;5.482;2022-11-22T11:04:59;3.17;;;1.23;;
53833;SDS011;39735;51.432;5.482;2022-11-22T11:07:28;2.72;;;1.00;;
53833;SDS011;39735;51.432;5.482;2022-11-22T11:09:58;4.88;;;0.95;;
53833;SDS011;39735;51.432;5.482;2022-11-22T11:12:39;5.13;;;1.30;;
53833;SDS011;39735;51.432;5.482;2022-11-22T11:15:20;4.97;;;1.42;;
53833;SDS011;39735;51.432;5.482;2022-11-22T11:17:52;2.53;;;0.80;;
53833;SDS011;39735;51.432;5.482;2022-11-22T11:20:21;1.52;;;0.77;;
53833;SDS011;39735;51.432;5.482;2022-11-22T11:22:49;6.38;;;0.93;;
53833;SDS011;39735;51.432;5.482;2022-11-22T11:25:34;4.72;;;1.02;;
53833;SDS011;39735;51.432;5.482;2022-11-22T11:28:28;11.32;;;0.95;;
53833;SDS011;39735;51.432;5.482;2022-11-22T11:31:05;17.10;;;1.13;;
53833;SDS011;39735;51.432;5.482;2022-11-22T11:33:33;6.38;;;1.98;;
53833;SDS011;39735;51.432;5.482;2022-11-22T11:38:48;1.17;;;0.80;;
53833;SDS011;39735;51.432;5.482;2022-11-22T11:41:32;0.50;;;0.50;;
53833;SDS011;39735;51.432;5.482;2022-11-22T11:43:59;1.77;;;0.82;;
53833;SDS011;39735;51.432;5.482;2022-11-22T11:46:27;12.43;;;1.08;;
53833;SDS011;39735;51.432;5.482;2022-11-22T11:48:54;2.45;;;1.45;;
53833;SDS011;39735;51.432;5.482;2022-11-22T11:51:22;17.08;;;1.58;;
53833;SDS011;39735;51.432;5.482;2022-11-22T11:53:55;7.03;;;1.58;;
53833;SDS011;39735;51.432;5.482;2022-11-22T11:56:32;5.68;;;0.70;;
53833;SDS011;39735;51.432;5.482;2022-11-22T11:59:03;2.80;;;1.20;;
53833;SDS011;39735;51.432;5.482;2022-11-22T12:01:34;8.88;;;1.20;;
53833;SDS011;39735;51.432;5.482;2022-11-22T12:04:01;15.80;;;4.68;;
53833;SDS011;39735;51.432;5.482;2022-11-22T12:06:28;3.20;;;0.95;;
53833;SDS011;39735;51.432;5.482;2022-11-22T12:08:56;3.03;;;0.30;;
53833;SDS011;39735;51.432;5.482;2022-11-22T12:11:25;4.63;;;0.82;;
53833;SDS011;39735;51.432;5.482;2022-11-22T12:13:58;1.08;;;0.63;;
53833;SDS011;39735;51.432;5.482;2022-11-22T12:16:39;2.85;;;0.68;;
53833;SDS011;39735;51.432;5.482;2022-11-22T12:19:26;7.55;;;1.15;;
53833;SDS011;39735;51.432;5.482;2022-11-22T12:22:01;3.85;;;1.60;;
53833;SDS011;39735;51.432;5.482;2022-11-22T12:24:42;2.83;;;1.02;;
53833;SDS011;39735;51.432;5.482;2022-11-22T12:27:13;0.73;;;0.30;;
53833;SDS011;39735;51.432;5.482;2022-11-22T12:29:39;3.47;;;0.63;;
53833;SDS011;39735;51.432;5.482;2022-11-22T12:37:20;3.00;;;0.60;;
53833;SDS011;39735;51.432;5.482;2022-11-22T12:39:50;2.58;;;0.63;;
53833;SDS011;39735;51.432;5.482;2022-11-22T12:42:27;3.90;;;0.52;;
53833;SDS011;39735;51.432;5.482;2022-11-22T12:45:03;0.25;;;0.25;;
53833;SDS011;39735;51.432;5.482;2022-11-22T12:47:34;7.78;;;0.88;;
53833;SDS011;39735;51.432;5.482;2022-11-22T12:53:09;4.72;;;0.65;;
53833;SDS011;39735;51.432;5.482;2022-11-22T12:55:50;4.35;;;1.00;;
53833;SDS011;39735;51.432;5.482;2022-11-22T13:01:24;10.98;;;2.05;;
53833;SDS011;39735;51.432;5.482;2022-11-22T13:03:59;1.55;;;0.40;;
53833;SDS011;39735;51.432;5.482;2022-11-22T13:06:53;3.67;;;0.68;;
53833;SDS011;39735;51.432;5.482;2022-11-22T13:09:32;2.80;;;0.40;;
53833;SDS011;39735;51.432;5.482;2022-11-22T13:12:02;1.23;;;1.13;;
53833;SDS011;39735;51.432;5.482;2022-11-22T13:14:41;4.07;;;1.15;;
53833;SDS011;39735;51.432;5.482;2022-11-22T13:17:10;0.80;;;0.63;;
53833;SDS011;39735;51.432;5.482;2022-11-22T13:19:47;1.90;;;0.68;;
53833;SDS011;39735;51.432;5.482;2022-11-22T13:28:20;14.07;;;0.85;;
53833;SDS011;39735;51.432;5.482;2022-11-22T13:33:29;3.80;;;0.80;;
53833;SDS011;39735;51.432;5.482;2022-11-22T13:38:47;1.17;;;0.90;;
53833;SDS011;39735;51.432;5.482;2022-11-22T13:41:20;0.73;;;0.63;;
53833;SDS011;39735;51.432;5.482;2022-11-22T13:43:51;2.60;;;0.80;;
53833;SDS011;39735;51.432;5.482;2022-11-22T13:57:27;0.32;;;0.32;;
53833;SDS011;39735;51.432;5.482;2022-11-22T14:02:40;2.28;;;0.52;;
53833;SDS011;39735;51.432;5.482;2022-11-22T14:07:42;0.35;;;0.35;;
53833;SDS011;39735;51.432;5.482;2022-11-22T14:13:23;1.50;;;0.90;;
53833;SDS011;39735;51.432;5.482;2022-11-22T14:19:44;0.55;;;0.50;;
53833;SDS011;39735;51.432;5.482;2022-11-22T14:25:39;2.40;;;0.93;;
53833;SDS011;39735;51.432;5.482;2022-11-22T14:28:27;14.00;;;0.40;;
53833;SDS011;39735;51.432;5.482;2022-11-22T14:31:32;8.43;;;0.70;;
53833;SDS011;39735;51.432;5.482;2022-11-22T14:45:07;3.22;;;1.10;;
53833;SDS011;39735;51.432;5.482;2022-11-22T14:47:41;2.15;;;1.42;;
53833;SDS011;39735;51.432;5.482;2022-11-22T14:53:14;0.98;;;0.98;;
53833;SDS011;39735;51.432;5.482;2022-11-22T14:55:44;1.85;;;0.38;;
53833;SDS011;39735;51.432;5.482;2022-11-22T14:58:11;1.08;;;0.43;;
53833;SDS011;39735;51.432;5.482;2022-11-22T15:00:53;0.22;;;0.22;;
53833;SDS011;39735;51.432;5.482;2022-11-22T15:08:57;2.20;;;0.40;;
53833;SDS011;39735;51.432;5.482;2022-11-22T15:11:34;3.95;;;0.60;;
53833;SDS011;39735;51.432;5.482;2022-11-22T15:14:31;1.30;;;0.65;;
53833;SDS011;39735;51.432;5.482;2022-11-22T15:17:15;3.85;;;2.50;;
53833;SDS011;39735;51.432;5.482;2022-11-22T15:19:42;1.17;;;1.08;;
53833;SDS011;39735;51.432;5.482;2022-11-22T15:22:15;3.40;;;1.13;;
53833;SDS011;39735;51.432;5.482;2022-11-22T15:24:49;2.88;;;0.57;;
53833;SDS011;39735;51.432;5.482;2022-11-22T15:27:29;5.03;;;0.35;;
53833;SDS011;39735;51.432;5.482;2022-11-22T15:30:32;2.92;;;0.98;;
53833;SDS011;39735;51.432;5.482;2022-11-22T15:32:51;7.60;;;1.05;;
53833;SDS011;39735;51.432;5.482;2022-11-22T15:35:22;4.43;;;2.35;;
53833;SDS011;39735;51.432;5.482;2022-11-22T15:40:15;0.85;;;0.85;;
53833;SDS011;39735;51.432;5.482;2022-11-22T15:42:52;4.50;;;1.38;;
53833;SDS011;39735;51.432;5.482;2022-11-22T15:45:22;3.72;;;1.20;;
53833;SDS011;39735;51.432;5.482;2022-11-22T15:47:56;3.63;;;1.00;;
53833;SDS011;39735;51.432;5.482;2022-11-22T15:50:23;1.15;;;0.80;;
53833;SDS011;39735;51.432;5.482;2022-11-22T15:52:50;1.70;;;1.20;;
53833;SDS011;39735;51.432;5.482;2022-11-22T15:55:18;4.57;;;1.77;;
53833;SDS011;39735;51.432;5.482;2022-11-22T15:57:47;7.68;;;1.35;;
53833;SDS011;39735;51.432;5.482;2022-11-22T16:02:47;2.28;;;2.00;;
53833;SDS011;39735;51.432;5.482;2022-11-22T16:05:13;1.95;;;1.50;;
53833;SDS011;39735;51.432;5.482;2022-11-22T16:07:46;6.80;;;1.67;;
53833;SDS011;39735;51.432;5.482;2022-11-22T16:13:10;2.13;;;1.30;;
53833;SDS011;39735;51.432;5.482;2022-11-22T16:15:36;4.85;;;1.42;;
53833;SDS011;39735;51.432;5.482;2022-11-22T16:18:06;0.63;;;0.63;;
53833;SDS011;39735;51.432;5.482;2022-11-22T16:23:39;9.63;;;2.63;;
53833;SDS011;39735;51.432;5.482;2022-11-22T16:28:53;2.28;;;1.33;;
53833;SDS011;39735;51.432;5.482;2022-11-22T16:31:24;3.08;;;1.25;;
53833;SDS011;39735;51.432;5.482;2022-11-22T16:33:51;4.00;;;1.60;;
53833;SDS011;39735;51.432;5.482;2022-11-22T16:36:17;2.90;;;1.00;;
53833;SDS011;39735;51.432;5.482;2022-11-22T16:38:43;1.75;;;1.63;;
53833;SDS011;39735;51.432;5.482;2022-11-22T16:41:23;1.77;;;1.67;;
53833;SDS011;39735;51.432;5.482;2022-11-22T16:43:51;6.18;;;1.30;;
53833;SDS011;39735;51.432;5.482;2022-11-22T16:46:17;9.27;;;1.80;;